createdAt,value
2024-05-09T00:00:55.485Z,-0.66
2024-05-09T00:03:23.763Z,-0.63
2024-05-09T00:05:51.827Z,-0.55
2024-05-09T00:08:19.943Z,-0.61
2024-05-09T00:10:48.313Z,-0.62
2024-05-09T00:13:16.412Z,-0.64
2024-05-09T00:15:44.495Z,-0.54
2024-05-09T00:18:12.829Z,-0.62
2024-05-09T00:20:41.498Z,-0.57
2024-05-09T00:23:16.656Z,-0.58
2024-05-09T00:25:45.941Z,-0.60
2024-05-09T00:28:14.567Z,-0.61
2024-05-09T00:30:42.884Z,-0.59
2024-05-09T00:33:11.882Z,-0.71
2024-05-09T00:35:42.011Z,-0.50
2024-05-09T00:38:11.350Z,-0.63
2024-05-09T00:40:42.591Z,-0.48
2024-05-09T00:43:14.476Z,-0.60
2024-05-09T00:45:44.381Z,-0.66
2024-05-09T00:48:17.190Z,-0.67
2024-05-09T00:50:47.950Z,-0.72
2024-05-09T00:53:19.426Z,-0.49
2024-05-09T00:55:48.243Z,-0.54
2024-05-09T00:58:21.400Z,-0.60
2024-05-09T01:00:51.276Z,-0.66
2024-05-09T01:03:20.355Z,-0.65
2024-05-09T01:05:48.640Z,-0.72
2024-05-09T01:08:17.074Z,-0.71
2024-05-09T01:10:47.919Z,-0.96
2024-05-09T01:13:16.564Z,-0.86
2024-05-09T01:15:44.814Z,-0.94
2024-05-09T01:18:14.072Z,-1.07
2024-05-09T01:20:44.747Z,-1.09
2024-05-09T01:23:16.071Z,-1.25
2024-05-09T01:25:47.032Z,-1.03
2024-05-09T01:28:16.705Z,-1.26
2024-05-09T01:30:45.314Z,-1.17
2024-05-09T01:33:13.607Z,-1.27
2024-05-09T01:35:43.000Z,-1.30
2024-05-09T01:38:14.048Z,-1.47
2024-05-09T01:40:44.836Z,-1.43
2024-05-09T01:43:12.900Z,-1.56
2024-05-09T01:45:41.670Z,-1.60
2024-05-09T01:48:11.082Z,-1.55
2024-05-09T01:50:42.349Z,-1.65
2024-05-09T01:53:15.503Z,-1.73
2024-05-09T01:55:44.379Z,-1.78
2024-05-09T01:58:12.765Z,-1.79
2024-05-09T02:00:42.780Z,-1.66
2024-05-09T02:03:16.079Z,-1.76
2024-05-09T02:05:47.786Z,-1.65
2024-05-09T02:08:19.704Z,-1.68
2024-05-09T02:10:50.206Z,-1.71
2024-05-09T02:13:19.420Z,-1.66
2024-05-09T02:15:48.036Z,-1.55
2024-05-09T02:18:16.278Z,-1.45
2024-05-09T02:20:44.538Z,-1.49
2024-05-09T02:23:14.138Z,-1.52
2024-05-09T02:25:42.971Z,-1.36
2024-05-09T02:28:10.981Z,-1.36
2024-05-09T02:30:41.598Z,-1.36
2024-05-09T02:33:13.389Z,-1.27
2024-05-09T02:35:44.283Z,-1.33
2024-05-09T02:38:13.440Z,-1.19
2024-05-09T02:40:41.624Z,-1.26
2024-05-09T02:43:12.993Z,-1.33
2024-05-09T02:45:41.840Z,-1.27
2024-05-09T02:48:14.039Z,-1.29
2024-05-09T02:50:44.722Z,-1.33
2024-05-09T02:53:14.201Z,-1.14
2024-05-09T02:55:43.354Z,-1.16
2024-05-09T02:58:12.524Z,-1.11
2024-05-09T03:00:42.589Z,-1.13
2024-05-09T03:03:13.906Z,-1.20
2024-05-09T03:05:46.806Z,-1.14
2024-05-09T03:08:15.439Z,-1.18
2024-05-09T03:10:43.545Z,-1.07
2024-05-09T03:13:14.650Z,-1.07
2024-05-09T03:15:44.943Z,-1.05
2024-05-09T03:18:39.561Z,-0.91
2024-05-09T03:21:07.943Z,-1.03
2024-05-09T03:23:42.317Z,-0.90
2024-05-09T03:26:13.896Z,-0.87
2024-05-09T03:28:45.877Z,-0.88
2024-05-09T03:31:14.640Z,-1.03
2024-05-09T03:33:42.968Z,-0.90
2024-05-09T03:36:11.482Z,-0.98
2024-05-09T03:38:42.764Z,-0.79
2024-05-09T03:41:11.316Z,-0.75
2024-05-09T03:43:39.254Z,-0.77
2024-05-09T03:46:07.362Z,-0.71
2024-05-09T03:48:36.379Z,-0.70
2024-05-09T03:51:05.023Z,-0.68
2024-05-09T03:53:33.041Z,-0.76
2024-05-09T03:56:04.072Z,-0.72
2024-05-09T03:58:32.281Z,-0.42
2024-05-09T04:01:00.360Z,-0.35
2024-05-09T04:03:28.788Z,-0.23
2024-05-09T04:05:57.484Z,-0.20
2024-05-09T04:08:25.392Z,-0.11
2024-05-09T04:10:53.177Z,-0.19
2024-05-09T04:13:21.110Z,-0.28
2024-05-09T04:15:49.323Z,-0.36
2024-05-09T04:18:18.807Z,-0.32
2024-05-09T04:20:47.142Z,-0.25
2024-05-09T04:23:15.310Z,-0.21
2024-05-09T04:25:45.936Z,-0.12
2024-05-09T04:28:14.725Z,-0.42
2024-05-09T04:30:43.840Z,-0.62
2024-05-09T04:33:14.014Z,-0.59
2024-05-09T04:35:46.238Z,-0.62
2024-05-09T04:38:15.213Z,-0.61
2024-05-09T04:40:44.625Z,-0.62
2024-05-09T04:43:17.633Z,-0.64
2024-05-09T04:45:46.601Z,-0.66
2024-05-09T04:48:14.745Z,-0.63
2024-05-09T04:50:43.136Z,-0.71
2024-05-09T04:53:16.624Z,-0.63
2024-05-09T04:55:45.156Z,-0.66
2024-05-09T04:58:13.593Z,-0.51
2024-05-09T05:00:41.988Z,-0.32
2024-05-09T05:03:14.995Z,-0.19
2024-05-09T05:05:45.962Z,0.04
2024-05-09T05:08:17.167Z,0.48
2024-05-09T05:10:47.446Z,0.94
2024-05-09T05:13:18.368Z,1.48
2024-05-09T05:15:48.425Z,1.71
2024-05-09T05:18:17.123Z,2.17
2024-05-09T05:20:45.476Z,2.65
2024-05-09T05:23:16.285Z,3.01
2024-05-09T05:25:48.412Z,3.24
2024-05-09T05:28:18.115Z,3.31
2024-05-09T05:30:46.787Z,2.97
2024-05-09T05:33:16.346Z,2.09
2024-05-09T05:35:44.984Z,1.26
2024-05-09T05:38:13.527Z,1.33
2024-05-09T05:40:41.808Z,1.26
2024-05-09T05:43:16.545Z,1.82
2024-05-09T05:45:45.683Z,2.21
2024-05-09T05:48:17.176Z,1.97
2024-05-09T05:50:46.348Z,1.46
2024-05-09T05:53:14.776Z,1.06
2024-05-09T05:55:43.374Z,0.82
2024-05-09T05:58:15.509Z,0.71
2024-05-09T06:00:44.715Z,0.61
2024-05-09T06:03:14.469Z,0.36
2024-05-09T06:05:48.839Z,0.37
2024-05-09T06:08:17.189Z,0.29
2024-05-09T06:10:45.475Z,0.05
2024-05-09T06:13:14.591Z,-0.06
2024-05-09T06:15:43.898Z,-0.10
2024-05-09T06:18:12.971Z,0.10
2024-05-09T06:20:43.940Z,0.32
2024-05-09T06:23:16.233Z,0.41
2024-05-09T06:25:44.501Z,0.29
2024-05-09T06:28:12.618Z,0.35
2024-05-09T06:30:42.382Z,1.14
2024-05-09T06:33:14.712Z,1.92
2024-05-09T06:35:45.026Z,2.58
2024-05-09T06:38:13.773Z,2.87
2024-05-09T06:40:44.129Z,3.03
2024-05-09T06:43:18.126Z,2.98
2024-05-09T06:45:49.368Z,2.59
2024-05-09T06:48:22.069Z,2.00
2024-05-09T06:50:51.161Z,1.61
2024-05-09T06:53:23.688Z,1.38
2024-05-09T06:55:51.870Z,1.20
2024-05-09T06:58:19.791Z,0.83
2024-05-09T07:00:48.070Z,0.83
2024-05-09T07:03:18.254Z,0.88
2024-05-09T07:05:49.373Z,1.42
2024-05-09T07:08:17.872Z,1.90
2024-05-09T07:10:46.453Z,2.20
2024-05-09T07:13:15.663Z,2.87
2024-05-09T07:15:44.391Z,3.56
2024-05-09T07:18:18.434Z,4.27
2024-05-09T07:20:49.393Z,4.86
2024-05-09T07:23:19.021Z,4.64
2024-05-09T07:25:47.559Z,4.63
2024-05-09T07:28:19.905Z,4.56
2024-05-09T07:30:48.430Z,4.30
2024-05-09T07:33:23.076Z,3.47
2024-05-09T07:35:53.380Z,2.55
2024-05-09T07:38:21.918Z,1.92
2024-05-09T07:40:50.602Z,1.97
2024-05-09T07:43:18.800Z,2.56
2024-05-09T07:45:52.689Z,3.48
2024-05-09T07:52:39.304Z,4.41
2024-05-09T07:53:49.160Z,4.49
2024-05-09T07:56:22.808Z,4.33
2024-05-09T07:58:56.464Z,4.52
2024-05-09T08:01:28.218Z,3.95
2024-05-09T08:03:56.944Z,3.75
2024-05-09T08:06:25.892Z,3.48
2024-05-09T08:08:54.455Z,3.03
2024-05-09T08:11:23.550Z,2.99
2024-05-09T08:13:51.470Z,3.44
2024-05-09T08:16:19.921Z,3.56
2024-05-09T08:18:50.118Z,4.06
2024-05-09T08:21:19.552Z,4.38
2024-05-09T08:23:47.556Z,5.45
2024-05-09T08:26:15.633Z,6.24
2024-05-09T08:28:43.450Z,6.69
2024-05-09T08:31:12.026Z,6.62
2024-05-09T08:33:48.350Z,5.66
2024-05-09T08:36:17.061Z,5.34
2024-05-09T08:38:45.297Z,5.14
2024-05-09T08:41:18.225Z,5.59
2024-05-09T08:43:47.696Z,6.11
2024-05-09T08:46:19.241Z,5.66
2024-05-09T08:48:50.305Z,5.72
2024-05-09T08:51:18.606Z,5.98
2024-05-09T08:53:46.783Z,5.74
2024-05-09T08:56:17.195Z,5.59
2024-05-09T08:58:46.510Z,5.39
2024-05-09T09:01:15.692Z,5.26
2024-05-09T09:03:45.902Z,4.88
2024-05-09T09:06:18.415Z,4.35
2024-05-09T09:08:46.854Z,4.07
2024-05-09T09:11:15.503Z,4.35
2024-05-09T09:13:43.460Z,5.19
2024-05-09T09:16:11.629Z,6.31
2024-05-09T09:18:39.698Z,6.86
2024-05-09T09:21:11.530Z,7.04
2024-05-09T09:23:42.959Z,7.26
2024-05-09T09:26:16.778Z,7.53
2024-05-09T09:28:47.960Z,7.40
2024-05-09T09:31:20.560Z,7.61
2024-05-09T09:33:49.286Z,7.93
2024-05-09T09:36:18.716Z,7.90
2024-05-09T09:38:48.781Z,8.15
2024-05-09T09:41:20.327Z,7.97
2024-05-09T09:43:49.393Z,7.80
2024-05-09T09:46:18.714Z,7.25
2024-05-09T09:48:47.991Z,6.89
2024-05-09T09:51:16.478Z,6.39
2024-05-09T09:53:45.405Z,5.97
2024-05-09T09:56:18.250Z,6.87
2024-05-09T09:58:47.521Z,7.23
2024-05-09T10:01:15.579Z,7.71
2024-05-09T10:03:46.094Z,7.36
2024-05-09T10:06:15.219Z,7.01
2024-05-09T10:08:43.972Z,6.67
2024-05-09T10:11:12.370Z,5.81
2024-05-09T10:13:42.994Z,5.32
2024-05-09T10:16:12.305Z,5.11
2024-05-09T10:18:41.879Z,4.92
2024-05-09T10:21:17.921Z,5.38
2024-05-09T10:24:09.785Z,5.56
2024-05-09T10:26:39.260Z,5.73
2024-05-09T10:29:18.465Z,6.19
2024-05-09T10:31:48.062Z,6.02
2024-05-09T10:34:23.495Z,6.27
2024-05-09T10:36:55.375Z,5.88
2024-05-09T10:39:26.257Z,5.31
2024-05-09T10:41:53.969Z,4.70
2024-05-09T10:44:22.548Z,4.20
2024-05-09T10:46:50.931Z,4.33
2024-05-09T10:49:19.159Z,4.86
2024-05-09T10:51:48.610Z,5.66
2024-05-09T10:54:17.361Z,6.52
2024-05-09T10:56:45.374Z,7.76
2024-05-09T10:59:13.600Z,8.63
2024-05-09T11:01:41.802Z,8.26
2024-05-09T11:04:10.468Z,8.10
2024-05-09T11:06:39.680Z,8.02
2024-05-09T11:09:08.145Z,7.93
2024-05-09T11:11:36.311Z,7.60
2024-05-09T11:14:13.343Z,7.57
2024-05-09T11:16:41.561Z,7.03
2024-05-09T11:19:14.315Z,6.19
2024-05-09T11:21:42.873Z,6.01
2024-05-09T11:24:11.512Z,5.80
2024-05-09T11:26:40.218Z,5.93
2024-05-09T11:29:08.169Z,6.28
2024-05-09T11:31:48.892Z,5.89
2024-05-09T11:34:16.984Z,5.85
2024-05-09T11:36:45.417Z,6.12
2024-05-09T11:39:14.947Z,6.13
2024-05-09T11:41:43.203Z,6.40
2024-05-09T11:44:11.198Z,6.33
2024-05-09T11:46:39.072Z,6.58
2024-05-09T11:49:07.721Z,7.18
2024-05-09T11:51:36.164Z,7.92
2024-05-09T11:54:04.146Z,7.64
2024-05-09T11:56:32.386Z,7.14
2024-05-09T11:59:00.598Z,6.50
2024-05-09T12:01:28.749Z,6.18
2024-05-09T12:03:56.932Z,6.26
2024-05-09T12:06:25.312Z,6.43
2024-05-09T12:08:53.263Z,7.78
2024-05-09T12:11:21.366Z,9.24
2024-05-09T12:13:49.357Z,10.05
2024-05-09T12:16:17.270Z,9.48
2024-05-09T12:18:45.484Z,9.10
2024-05-09T12:21:17.270Z,8.50
2024-05-09T12:23:45.657Z,8.08
2024-05-09T12:26:15.989Z,7.40
2024-05-09T12:28:44.806Z,7.09
2024-05-09T12:31:12.784Z,6.51
2024-05-09T12:33:40.887Z,6.76
2024-05-09T12:36:09.129Z,7.54
2024-05-09T12:38:37.644Z,7.95
2024-05-09T12:41:05.934Z,7.47
2024-05-09T12:43:33.963Z,7.38
2024-05-09T12:46:03.647Z,7.20
2024-05-09T12:48:31.955Z,7.20
2024-05-09T12:51:00.306Z,6.71
2024-05-09T12:53:28.493Z,6.66
2024-05-09T12:56:00.200Z,6.42
2024-05-09T12:58:30.321Z,6.51
2024-05-09T13:00:58.431Z,7.34
2024-05-09T13:03:26.882Z,7.79
2024-05-09T13:05:55.364Z,7.38
2024-05-09T13:08:23.504Z,7.08
2024-05-09T13:10:51.968Z,6.88
2024-05-09T13:13:20.016Z,6.56
2024-05-09T13:15:48.556Z,6.67
2024-05-09T13:18:16.692Z,7.41
2024-05-09T13:20:45.102Z,7.64
2024-05-09T13:23:13.017Z,7.60
2024-05-09T13:25:41.545Z,7.68
2024-05-09T13:28:09.654Z,7.47
2024-05-09T13:30:40.826Z,7.91
2024-05-09T13:33:12.877Z,7.56
2024-05-09T13:35:47.198Z,6.98
2024-05-09T13:38:20.865Z,6.50
2024-05-09T13:40:49.591Z,6.23
2024-05-09T13:43:18.630Z,5.98
2024-05-09T13:45:47.759Z,5.91
2024-05-09T13:48:15.985Z,5.85
2024-05-09T13:50:44.047Z,5.82
2024-05-09T13:53:12.079Z,6.02
2024-05-09T13:55:40.576Z,6.15
2024-05-09T13:58:09.748Z,5.92
2024-05-09T14:00:46.319Z,5.91
2024-05-09T14:03:19.476Z,6.19
2024-05-09T14:05:51.156Z,6.58
2024-05-09T14:08:22.578Z,7.21
2024-05-09T14:10:52.638Z,7.59
2024-05-09T14:13:20.905Z,7.48
2024-05-09T14:15:49.609Z,6.97
2024-05-09T14:18:18.067Z,6.87
2024-05-09T14:20:46.225Z,6.57
2024-05-09T14:23:15.704Z,6.00
2024-05-09T14:25:45.469Z,6.15
2024-05-09T14:28:14.511Z,6.14
2024-05-09T14:30:43.154Z,6.10
2024-05-09T14:33:12.088Z,5.90
2024-05-09T14:35:40.314Z,5.77
2024-05-09T14:38:10.144Z,5.79
2024-05-09T14:40:42.500Z,5.98
2024-05-09T14:43:14.795Z,6.03
2024-05-09T14:45:44.122Z,6.12
2024-05-09T14:48:15.237Z,6.24
2024-05-09T14:50:44.105Z,6.01
2024-05-09T14:53:14.104Z,6.00
2024-05-09T14:55:43.698Z,5.97
2024-05-09T14:58:13.100Z,5.93
2024-05-09T15:00:46.813Z,5.96
2024-05-09T15:03:22.585Z,5.91
2024-05-09T15:05:51.602Z,5.81
2024-05-09T15:08:20.915Z,5.71
2024-05-09T15:10:50.446Z,5.56
2024-05-09T15:13:20.215Z,5.60
2024-05-09T15:15:48.850Z,5.61
2024-05-09T15:18:17.427Z,5.67
2024-05-09T15:20:45.812Z,5.68
2024-05-09T15:23:14.029Z,5.71
2024-05-09T15:25:44.398Z,5.66
2024-05-09T15:28:12.556Z,5.52
2024-05-09T15:30:42.794Z,5.51
2024-05-09T15:33:14.076Z,5.44
2024-05-09T15:35:42.216Z,5.54
2024-05-09T15:38:10.862Z,5.42
2024-05-09T15:40:40.719Z,5.49
2024-05-09T15:43:10.985Z,5.59
2024-05-09T15:45:41.601Z,5.52
2024-05-09T15:48:10.968Z,5.29
2024-05-09T15:50:41.913Z,5.31
2024-05-09T15:53:13.662Z,5.33
2024-05-09T15:55:43.350Z,5.15
2024-05-09T15:58:12.395Z,5.13
2024-05-09T16:00:44.063Z,5.02
2024-05-09T16:03:15.260Z,4.89
2024-05-09T16:05:46.657Z,5.06
2024-05-09T16:08:15.882Z,5.10
2024-05-09T16:10:46.316Z,5.05
2024-05-09T16:13:16.166Z,5.05
2024-05-09T16:15:44.900Z,5.02
2024-05-09T16:18:13.166Z,4.94
2024-05-09T16:20:43.396Z,4.96
2024-05-09T16:23:13.014Z,4.95
2024-05-09T16:25:46.446Z,4.96
2024-05-09T16:28:14.568Z,4.97
2024-05-09T16:30:43.318Z,4.74
2024-05-09T16:33:12.459Z,4.93
2024-05-09T16:35:40.649Z,4.90
2024-05-09T16:38:08.775Z,4.78
2024-05-09T16:40:40.277Z,4.76
2024-05-09T16:43:11.567Z,4.70
2024-05-09T16:45:41.234Z,4.51
2024-05-09T16:48:09.883Z,4.51
2024-05-09T16:50:39.304Z,4.53
2024-05-09T16:53:07.653Z,4.51
2024-05-09T16:55:36.588Z,4.40
2024-05-09T16:58:05.487Z,4.51
2024-05-09T17:00:40.559Z,4.44
2024-05-09T17:03:15.292Z,4.36
2024-05-09T17:05:47.366Z,4.50
2024-05-09T17:08:18.329Z,4.39
2024-05-09T17:10:49.497Z,4.43
2024-05-09T17:13:17.897Z,4.40
2024-05-09T17:15:46.027Z,4.38
2024-05-09T17:18:13.713Z,4.31
2024-05-09T17:20:43.520Z,4.24
2024-05-09T17:23:14.579Z,4.20
2024-05-09T17:25:42.408Z,4.16
2024-05-09T17:28:11.128Z,4.08
2024-05-09T17:30:40.782Z,4.02
2024-05-09T17:33:11.159Z,3.92
2024-05-09T17:35:40.001Z,3.83
2024-05-09T17:38:07.736Z,3.75
2024-05-09T17:40:37.581Z,3.67
2024-05-09T17:43:08.683Z,3.62
2024-05-09T17:45:39.227Z,3.62
2024-05-09T17:48:08.797Z,3.58
2024-05-09T17:50:37.826Z,3.54
2024-05-09T17:53:06.444Z,3.49
2024-05-09T17:55:34.840Z,3.45
2024-05-09T17:58:02.878Z,3.37
2024-05-09T18:00:37.879Z,3.33
2024-05-09T18:03:11.070Z,3.28
2024-05-09T18:05:39.966Z,3.21
2024-05-09T18:08:08.585Z,3.13
2024-05-09T18:10:39.005Z,3.06
2024-05-09T18:13:08.948Z,3.02
2024-05-09T18:15:37.602Z,2.97
2024-05-09T18:18:06.577Z,2.92
2024-05-09T18:20:41.949Z,2.87
2024-05-09T18:23:14.343Z,2.84
2024-05-09T18:25:43.194Z,2.81
2024-05-09T18:28:11.274Z,2.78
2024-05-09T18:30:39.613Z,2.77
2024-05-09T18:33:11.548Z,2.76
2024-05-09T18:35:41.931Z,2.73
2024-05-09T18:38:09.670Z,2.67
2024-05-09T18:40:38.835Z,2.61
2024-05-09T18:43:08.977Z,2.56
2024-05-09T18:45:38.216Z,2.53
2024-05-09T18:48:07.581Z,2.54
2024-05-09T18:50:39.123Z,2.51
2024-05-09T18:53:13.110Z,2.51
2024-05-09T18:55:44.689Z,2.54
2024-05-09T18:58:13.189Z,2.58
2024-05-09T19:00:43.851Z,2.59
2024-05-09T19:03:14.507Z,2.58
2024-05-09T19:05:44.322Z,2.55
2024-05-09T19:08:15.440Z,2.51
2024-05-09T19:10:43.814Z,2.47
2024-05-09T19:13:13.427Z,2.43
2024-05-09T19:15:43.365Z,2.40
2024-05-09T19:18:12.470Z,2.37
2024-05-09T19:20:40.845Z,2.30
2024-05-09T19:23:08.492Z,2.26
2024-05-09T19:25:36.539Z,2.23
2024-05-09T19:28:05.591Z,2.19
2024-05-09T19:30:39.256Z,2.15
2024-05-09T19:33:11.007Z,2.13
2024-05-09T19:35:39.565Z,2.10
2024-05-09T19:38:07.268Z,2.05
2024-05-09T19:40:35.983Z,2.05
2024-05-09T19:43:05.602Z,2.03
2024-05-09T19:45:35.214Z,2.05
2024-05-09T19:48:04.890Z,2.05
2024-05-09T19:50:40.964Z,2.07
2024-05-09T19:53:12.150Z,2.04
2024-05-09T19:55:40.419Z,2.04
2024-05-09T19:58:09.289Z,2.04
2024-05-09T20:00:40.078Z,2.03
2024-05-09T20:03:10.567Z,1.99
2024-05-09T20:05:39.386Z,1.98
2024-05-09T20:08:07.466Z,1.95
2024-05-09T20:10:36.362Z,1.93
2024-05-09T20:13:06.620Z,1.92
2024-05-09T20:15:35.726Z,1.90
2024-05-09T20:18:04.081Z,1.66
2024-05-09T20:20:38.220Z,1.85
2024-05-09T20:23:09.874Z,1.82
2024-05-09T20:25:37.705Z,1.83
2024-05-09T20:28:09.021Z,1.83
2024-05-09T20:30:37.149Z,1.82
2024-05-09T20:33:07.457Z,1.79
2024-05-09T20:35:36.620Z,1.74
2024-05-09T20:38:05.224Z,1.72
2024-05-09T20:40:36.915Z,1.68
2024-05-09T20:43:07.511Z,1.64
2024-05-09T20:45:35.629Z,1.63
2024-05-09T20:48:03.824Z,1.60
2024-05-09T20:50:38.577Z,1.57
2024-05-09T20:53:09.659Z,1.56
2024-05-09T20:55:37.302Z,1.52
2024-05-09T20:58:05.050Z,1.48
2024-05-09T21:00:40.137Z,1.46
2024-05-09T21:03:11.804Z,1.46
2024-05-09T21:05:40.553Z,1.43
2024-05-09T21:08:08.674Z,1.40
2024-05-09T21:10:37.215Z,1.37
2024-05-09T21:13:06.773Z,1.36
2024-05-09T21:15:35.968Z,1.36
2024-05-09T21:18:04.783Z,1.34
2024-05-09T21:20:34.995Z,1.32
2024-05-09T21:23:03.837Z,1.30
2024-05-09T21:25:32.021Z,1.30
2024-05-09T21:28:00.060Z,1.29
2024-05-09T21:30:37.647Z,1.27
2024-05-09T21:33:10.958Z,1.26
2024-05-09T21:35:40.319Z,1.25
2024-05-09T21:38:08.060Z,1.26
2024-05-09T21:40:36.840Z,1.25
2024-05-09T21:43:06.441Z,1.25
2024-05-09T21:45:34.878Z,1.26
2024-05-09T21:48:06.540Z,1.28
2024-05-09T21:50:40.232Z,1.27
2024-05-09T21:53:10.395Z,1.26
2024-05-09T21:55:38.300Z,1.24
2024-05-09T21:58:06.187Z,1.22
2024-05-09T22:00:38.257Z,1.19
2024-05-09T22:03:11.141Z,1.17
2024-05-09T22:05:42.617Z,1.16
2024-05-09T22:08:10.990Z,1.16
2024-05-09T22:10:38.835Z,1.16
2024-05-09T22:13:07.244Z,1.15
2024-05-09T22:15:36.253Z,1.15
2024-05-09T22:18:05.843Z,1.16
2024-05-09T22:20:37.633Z,1.20
2024-05-09T22:23:07.552Z,1.25
2024-05-09T22:25:35.767Z,1.28
2024-05-09T22:28:03.831Z,1.28
2024-05-09T22:30:36.733Z,1.27
2024-05-09T22:33:07.711Z,1.25
2024-05-09T22:35:35.707Z,1.23
2024-05-09T22:38:03.834Z,1.26
2024-05-09T22:40:42.268Z,1.28
2024-05-09T22:43:19.983Z,1.33
2024-05-09T22:45:48.474Z,1.37
2024-05-09T22:48:16.081Z,1.41
2024-05-09T22:50:43.860Z,1.45
2024-05-09T22:53:11.392Z,1.50
2024-05-09T22:55:38.855Z,1.53
2024-05-09T22:58:06.619Z,1.54
2024-05-09T23:00:34.187Z,1.57
2024-05-09T23:03:02.287Z,1.62
2024-05-09T23:05:30.239Z,1.68
2024-05-09T23:07:57.966Z,1.70
2024-05-09T23:10:32.319Z,1.71
2024-05-09T23:13:04.411Z,1.73
2024-05-09T23:15:32.035Z,1.72
2024-05-09T23:18:00.366Z,1.70
2024-05-09T23:20:36.226Z,1.68
2024-05-09T23:23:07.386Z,1.62
2024-05-09T23:25:35.275Z,1.60
2024-05-09T23:28:03.083Z,1.58
2024-05-09T23:30:37.489Z,1.57
2024-05-09T23:33:08.570Z,1.55
2024-05-09T23:35:36.397Z,1.56
2024-05-09T23:38:04.156Z,1.58
2024-05-09T23:43:02.339Z,1.62
2024-05-09T23:45:29.835Z,1.62
2024-05-09T23:47:58.103Z,1.62
2024-05-09T23:50:33.620Z,1.63
2024-05-09T23:53:04.877Z,1.62
2024-05-09T23:55:32.869Z,1.61
2024-05-09T23:58:02.160Z,1.63
